Calloway Corners, Louisiana
Current Conditions -  °F | °C
As of 1:15 PM on Monday 22 Dec 2014 (Local Time) from KMNE Reporting Station
Overcast Overcast  
Wind Chill: 59°   Ceiling: 600
Heat Index: 59°   Visibility: 7mi
Dew Point: 55°   Wind: 3mph
Humidity: 88%   Direction: 150°SSE
Pressure: 29.61"   Gusts: NA
Location:  32.5043°N, 93.2934°W
Report Text: KMNE 221915Z AUTO 15003KT 7SM OVC006 15/13 A2961 RMK AO2
Loading
Personal Weather Stations






























Interactive Weather Map New forecast layout! Learn more

10-Day Weather Forecast

Advertisements
Track Severe Weather on mobile